WIMM/MES METAR and TAF weather

Enter ICAO airport designator
Station Type Date Time Source
WIMM METAR 2019/06/18 05:00 UTC NOAA

WIMM 180500Z 12004KT 9999 SCT017 31/25 Q1009 NOSIG


Station Type Date Time Source
WIMM Decoded METAR 2019/06/18 05:00 UTC NOAA

Medan / Polonia, Indonesia (WIMM) 03-34N 098-41E 25M
Jun 18, 2019 - 01:00 AM EDT / 2019.06.18 0500 UTC
Wind: from the ESE (120 degrees) at 5 MPH (4 KT):0
Visibility: greater than 7 mile(s):0
Sky conditions: partly cloudy
Temperature: 87 F (31 C)
Heat index: 97.5 F (36.4 C):1
Dew Point: 77 F (25 C)
Relative Humidity: 70%
Pressure (altimeter): 29.80 in. Hg (1009 hPa)
ob: WIMM 180500Z 12004KT 9999 SCT017 31/25 Q1009 NOSIG
cycle: 5

Station Type Date Time Source
WIMM TAF 2019/06/18 06:15 UTC NOAA

TAF TAF WIMM 180500Z 1806/1906 12005KT 9999 SCT017
BECMG 1811/1813 VRB08KT 5000 HZ FEW017CB SCT018
TEMPO 1814/1817 3000 -TSRA
BECMG 1901/1902 13006KT 9000 NSW SCT018

Example: see airport list